createdAt,value
2022-10-11T00:00:46.995Z,4.66
2022-10-11T00:01:48.855Z,4.01
2022-10-11T00:02:50.660Z,4.40
2022-10-11T00:03:52.485Z,5.43
2022-10-11T00:04:54.275Z,3.21
2022-10-11T00:05:56.093Z,4.25
2022-10-11T00:06:57.895Z,4.74
2022-10-11T00:07:59.685Z,4.01
2022-10-11T00:09:01.537Z,6.32
2022-10-11T00:10:03.339Z,5.65
2022-10-11T00:11:05.155Z,8.94
2022-10-11T00:12:06.934Z,4.20
2022-10-11T00:13:08.766Z,4.59
2022-10-11T00:14:10.606Z,3.31
2022-10-11T00:15:12.412Z,4.72
2022-10-11T00:16:14.349Z,4.08
2022-10-11T00:17:16.140Z,4.84
2022-10-11T00:18:17.943Z,4.55
2022-10-11T00:19:19.777Z,5.23
2022-10-11T00:20:21.527Z,5.59
2022-10-11T00:21:23.326Z,7.53
2022-10-11T00:22:25.133Z,4.67
2022-10-11T00:23:26.920Z,3.63
2022-10-11T00:24:28.750Z,5.89
2022-10-11T00:25:30.558Z,4.77
2022-10-11T00:26:32.369Z,4.39
2022-10-11T00:27:34.169Z,4.76
2022-10-11T00:28:36.275Z,6.31
2022-10-11T00:29:38.142Z,4.05
2022-10-11T00:30:39.940Z,4.49
2022-10-11T00:31:41.732Z,4.43
2022-10-11T00:32:43.533Z,5.38
2022-10-11T00:33:45.231Z,4.91
2022-10-11T00:34:47.079Z,6.14
2022-10-11T00:35:48.885Z,4.62
2022-10-11T00:36:50.681Z,4.87
2022-10-11T00:37:52.485Z,3.27
2022-10-11T00:38:54.293Z,4.12
2022-10-11T00:39:56.136Z,3.59
2022-10-11T00:40:57.937Z,6.61
2022-10-11T00:41:59.734Z,3.63
2022-10-11T00:43:01.532Z,6.35
2022-10-11T00:44:03.411Z,3.87
2022-10-11T00:45:05.249Z,4.13
2022-10-11T00:46:07.814Z,5.06
2022-10-11T00:47:09.951Z,4.45
2022-10-11T00:48:11.746Z,3.79
2022-10-11T00:49:13.552Z,3.63
2022-10-11T00:50:15.381Z,7.12
2022-10-11T00:51:17.170Z,4.39
2022-10-11T00:52:18.971Z,3.42
2022-10-11T00:53:20.869Z,4.11
2022-10-11T00:54:22.571Z,3.69
2022-10-11T00:55:24.397Z,3.77
2022-10-11T00:56:26.183Z,3.41
2022-10-11T00:57:27.986Z,6.23
2022-10-11T00:58:29.792Z,4.52
2022-10-11T00:59:31.676Z,3.65
2022-10-11T01:00:33.603Z,4.53
2022-10-11T01:01:35.442Z,4.13
2022-10-11T01:02:37.295Z,6.61
2022-10-11T01:03:39.105Z,4.71
2022-10-11T01:04:40.886Z,4.07
2022-10-11T01:05:42.714Z,4.63
2022-10-11T01:06:50.357Z,5.43
2022-10-11T01:07:52.206Z,4.07
2022-10-11T01:08:53.994Z,4.30
2022-10-11T01:09:55.796Z,4.19
2022-10-11T01:10:57.526Z,4.24
2022-10-11T01:11:59.343Z,4.59
2022-10-11T01:13:01.142Z,6.96
2022-10-11T01:14:02.929Z,3.74
2022-10-11T01:15:04.645Z,4.52
2022-10-11T01:16:07.249Z,4.21
2022-10-11T01:17:09.500Z,4.67
2022-10-11T01:18:11.300Z,4.39
2022-10-11T01:19:13.101Z,4.42
2022-10-11T01:20:14.904Z,4.27
2022-10-11T01:21:16.776Z,3.19
2022-10-11T01:22:18.565Z,5.04
2022-10-11T01:23:20.362Z,4.45
2022-10-11T01:24:22.063Z,4.50
2022-10-11T01:25:23.858Z,4.85
2022-10-11T01:26:25.695Z,3.45
2022-10-11T01:27:27.503Z,4.33
2022-10-11T01:28:29.352Z,4.10
2022-10-11T01:29:31.207Z,3.31
2022-10-11T01:30:33.035Z,3.96
2022-10-11T01:31:34.871Z,2.83
2022-10-11T01:32:37.734Z,4.11
2022-10-11T01:33:39.551Z,5.18
2022-10-11T01:34:41.354Z,4.93
2022-10-11T01:35:43.157Z,3.61
2022-10-11T01:36:45.006Z,3.67
2022-10-11T01:37:46.818Z,3.48
2022-10-11T01:38:48.618Z,6.20
2022-10-11T01:39:50.415Z,4.85
2022-10-11T01:40:52.212Z,4.95
2022-10-11T01:41:54.072Z,3.27
2022-10-11T01:42:55.899Z,4.76
2022-10-11T01:43:57.709Z,4.56
2022-10-11T01:44:59.530Z,3.63
2022-10-11T01:46:01.730Z,4.40
2022-10-11T01:47:03.796Z,4.00
2022-10-11T01:48:05.644Z,4.47
2022-10-11T01:49:07.470Z,3.82
2022-10-11T01:50:09.299Z,5.05
2022-10-11T01:51:11.115Z,4.19
2022-10-11T01:52:12.984Z,4.85
2022-10-11T01:53:14.807Z,4.44
2022-10-11T01:54:16.613Z,3.21
2022-10-11T01:55:18.434Z,4.47
2022-10-11T01:56:20.257Z,3.73
2022-10-11T01:57:22.214Z,4.17
2022-10-11T01:58:24.011Z,4.07
2022-10-11T01:59:25.828Z,4.43
2022-10-11T02:00:27.853Z,3.75
2022-10-11T02:01:29.758Z,3.67
2022-10-11T02:02:31.652Z,4.63
2022-10-11T02:03:33.459Z,4.33
2022-10-11T02:04:35.280Z,4.99
2022-10-11T02:05:37.104Z,3.62
2022-10-11T02:06:38.920Z,3.22
2022-10-11T02:07:40.786Z,3.61
2022-10-11T02:08:43.619Z,3.86
2022-10-11T02:09:45.454Z,5.72
2022-10-11T02:10:47.287Z,4.82
2022-10-11T02:11:49.092Z,4.51
2022-10-11T02:12:50.947Z,5.16
2022-10-11T02:13:52.771Z,5.79
2022-10-11T02:14:54.593Z,3.55
2022-10-11T02:15:56.433Z,4.06
2022-10-11T02:16:58.384Z,3.11
2022-10-11T02:18:00.237Z,2.86
2022-10-11T02:19:02.058Z,3.69
2022-10-11T02:20:04.066Z,4.57
2022-10-11T02:21:05.875Z,3.67
2022-10-11T02:22:07.694Z,3.16
2022-10-11T02:23:09.566Z,4.19
2022-10-11T02:24:11.371Z,5.28
2022-10-11T02:25:13.192Z,4.09
2022-10-11T02:26:15.036Z,5.66
2022-10-11T02:27:16.862Z,3.87
2022-10-11T02:28:18.758Z,4.57
2022-10-11T02:29:20.533Z,3.51
2022-10-11T02:30:22.340Z,3.97
2022-10-11T02:31:24.161Z,3.25
2022-10-11T02:32:26.252Z,3.14
2022-10-11T02:33:28.105Z,5.31
2022-10-11T02:34:29.922Z,4.00
2022-10-11T02:35:31.759Z,3.99
2022-10-11T02:36:33.565Z,5.33
2022-10-11T02:37:35.380Z,2.75
2022-10-11T02:38:37.230Z,3.09
2022-10-11T02:39:39.058Z,3.35
2022-10-11T02:40:40.872Z,4.95
2022-10-11T02:41:42.685Z,4.55
2022-10-11T02:42:44.504Z,2.99
2022-10-11T02:43:46.360Z,4.63
2022-10-11T02:44:48.181Z,3.32
2022-10-11T02:45:49.995Z,3.81
2022-10-11T02:46:51.805Z,5.49
2022-10-11T02:47:53.655Z,3.77
2022-10-11T02:48:55.527Z,3.49
2022-10-11T02:49:57.357Z,3.34
2022-10-11T02:50:59.178Z,5.09
2022-10-11T02:52:00.991Z,3.57
2022-10-11T02:53:02.816Z,4.53
2022-10-11T02:54:04.699Z,3.53
2022-10-11T02:55:06.515Z,4.68
2022-10-11T02:56:08.741Z,4.07
2022-10-11T02:57:10.643Z,3.93
2022-10-11T02:58:12.458Z,2.79
2022-10-11T02:59:14.311Z,3.89
2022-10-11T03:00:16.137Z,4.47
2022-10-11T03:01:17.998Z,3.75
2022-10-11T03:02:19.769Z,3.17
2022-10-11T03:03:21.625Z,3.61
2022-10-11T03:04:23.463Z,6.20
2022-10-11T03:05:25.282Z,5.89
2022-10-11T03:06:27.323Z,4.99
2022-10-11T03:07:29.139Z,3.25
2022-10-11T03:08:30.984Z,4.01
2022-10-11T03:09:32.848Z,9.22
2022-10-11T03:10:34.713Z,2.99
2022-10-11T03:11:36.510Z,4.89
2022-10-11T03:12:38.338Z,5.45
2022-10-11T03:13:40.182Z,5.81
2022-10-11T03:14:42.088Z,5.73
2022-10-11T03:15:43.897Z,5.25
2022-10-11T03:16:45.723Z,5.21
2022-10-11T03:18:40.964Z,5.08
2022-10-11T03:19:42.811Z,11.64
2022-10-11T03:20:44.627Z,24.49
2022-10-11T03:21:46.438Z,28.80
2022-10-11T03:22:48.234Z,44.36
2022-10-11T03:23:49.934Z,59.44
2022-10-11T03:24:51.798Z,66.69
2022-10-11T03:25:53.607Z,65.97
2022-10-11T03:26:55.471Z,68.67
2022-10-11T03:27:57.274Z,44.27
2022-10-11T03:28:59.160Z,35.40
2022-10-11T03:30:01.043Z,37.66
2022-10-11T03:31:02.827Z,24.65
2022-10-11T03:32:04.713Z,13.74
2022-10-11T03:33:06.501Z,12.41
2022-10-11T03:34:26.780Z,16.18
2022-10-11T03:35:30.435Z,10.97
2022-10-11T03:36:32.252Z,7.89
2022-10-11T03:37:34.056Z,8.21
2022-10-11T03:38:35.863Z,8.19
2022-10-11T03:39:37.672Z,12.73
2022-10-11T03:40:39.522Z,9.99
2022-10-11T03:41:41.334Z,7.38
2022-10-11T03:42:43.139Z,5.52
2022-10-11T03:43:44.930Z,7.33
2022-10-11T03:44:46.736Z,9.07
2022-10-11T03:45:48.720Z,11.94
2022-10-11T03:46:50.534Z,14.57
2022-10-11T03:47:52.347Z,9.96
2022-10-11T03:48:54.150Z,10.37
2022-10-11T03:49:56.085Z,8.38
2022-10-11T03:50:57.828Z,7.76
2022-10-11T03:51:59.668Z,8.33
2022-10-11T03:53:01.490Z,8.33
2022-10-11T03:54:03.261Z,9.02
2022-10-11T03:55:05.080Z,6.49
2022-10-11T03:56:08.618Z,6.86
2022-10-11T03:57:10.552Z,6.89
2022-10-11T03:58:12.357Z,6.09
2022-10-11T03:59:14.200Z,6.25
2022-10-11T04:00:15.997Z,6.51
2022-10-11T04:01:18.036Z,6.33
2022-10-11T04:02:20.020Z,5.77
2022-10-11T04:03:21.811Z,6.47
2022-10-11T04:04:23.617Z,6.59
2022-10-11T04:05:25.543Z,9.03
2022-10-11T04:06:27.495Z,8.44
2022-10-11T04:07:29.314Z,5.23
2022-10-11T04:08:31.121Z,7.37
2022-10-11T04:09:32.921Z,4.37
2022-10-11T04:10:34.760Z,5.85
2022-10-11T04:11:36.524Z,5.36
2022-10-11T04:12:38.337Z,5.45
2022-10-11T04:13:40.160Z,6.77
2022-10-11T04:14:41.987Z,5.18
2022-10-11T04:15:43.691Z,6.05
2022-10-11T04:16:45.449Z,6.27
2022-10-11T04:17:47.237Z,6.92
2022-10-11T04:18:49.038Z,6.79
2022-10-11T04:19:50.831Z,5.99
2022-10-11T04:20:52.789Z,4.79
2022-10-11T04:21:54.617Z,5.03
2022-10-11T04:22:56.327Z,4.45
2022-10-11T04:23:58.162Z,5.31
2022-10-11T04:24:59.957Z,4.34
2022-10-11T04:26:01.877Z,4.40
2022-10-11T04:27:03.992Z,6.57
2022-10-11T04:28:05.687Z,5.15
2022-10-11T04:29:07.374Z,3.79
2022-10-11T04:30:10.502Z,3.92
2022-10-11T04:31:12.422Z,5.06
2022-10-11T04:32:14.147Z,7.12
2022-10-11T04:33:15.929Z,3.59
2022-10-11T04:34:17.716Z,5.72
2022-10-11T04:35:19.509Z,7.51
2022-10-11T04:36:21.431Z,8.32
2022-10-11T04:37:23.156Z,4.66
2022-10-11T04:38:24.937Z,6.16
2022-10-11T04:39:26.642Z,7.29
2022-10-11T04:40:28.441Z,5.41
2022-10-11T04:41:30.242Z,3.63
2022-10-11T04:42:31.976Z,5.21
2022-10-11T04:43:33.792Z,5.59
2022-10-11T04:44:35.573Z,4.67
2022-10-11T04:45:37.359Z,4.95
2022-10-11T04:46:39.162Z,5.27
2022-10-11T04:47:40.994Z,6.67
2022-10-11T04:48:42.802Z,3.94
2022-10-11T04:49:44.593Z,3.93
2022-10-11T04:50:46.595Z,3.11
2022-10-11T04:51:48.405Z,5.13
2022-10-11T04:52:50.597Z,4.42
2022-10-11T04:53:52.297Z,3.69
2022-10-11T04:54:54.419Z,5.76
2022-10-11T04:55:56.205Z,5.01
2022-10-11T04:56:57.996Z,6.57
2022-10-11T04:57:59.839Z,4.93
2022-10-11T04:59:01.656Z,3.95
2022-10-11T05:00:03.432Z,4.25
2022-10-11T05:01:05.238Z,4.76
2022-10-11T05:02:07.094Z,3.61
2022-10-11T05:03:09.009Z,7.93
2022-10-11T05:04:10.800Z,6.44
2022-10-11T05:05:12.601Z,5.58
2022-10-11T05:06:14.697Z,5.80
2022-10-11T05:07:16.574Z,4.13
2022-10-11T05:08:18.402Z,5.35
2022-10-11T05:09:20.212Z,4.51
2022-10-11T05:10:22.004Z,4.11
2022-10-11T05:11:23.737Z,5.20
2022-10-11T05:12:25.525Z,7.01
2022-10-11T05:13:27.685Z,3.81
2022-10-11T05:14:29.507Z,5.20
2022-10-11T05:15:31.321Z,5.34
2022-10-11T05:16:33.141Z,4.14
2022-10-11T05:17:34.935Z,5.43
2022-10-11T05:18:36.812Z,4.95
2022-10-11T05:19:38.623Z,3.24
2022-10-11T05:20:40.437Z,3.85
2022-10-11T05:21:42.243Z,4.59
2022-10-11T05:22:44.100Z,5.55
2022-10-11T05:23:45.959Z,4.11
2022-10-11T05:24:47.756Z,4.47
2022-10-11T05:25:49.583Z,5.47
2022-10-11T05:26:51.396Z,4.65
2022-10-11T05:27:53.228Z,6.72
2022-10-11T05:28:55.203Z,4.66
2022-10-11T05:29:56.974Z,5.94
2022-10-11T05:30:58.771Z,7.10
2022-10-11T05:32:00.601Z,5.23
2022-10-11T05:33:02.418Z,6.19
2022-10-11T05:34:04.179Z,5.06
2022-10-11T05:35:05.960Z,5.95
2022-10-11T05:36:08.249Z,6.37
2022-10-11T05:37:10.543Z,4.36
2022-10-11T05:38:12.395Z,4.27
2022-10-11T05:39:14.238Z,4.12
2022-10-11T05:40:16.042Z,4.22
2022-10-11T05:41:17.856Z,4.27
2022-10-11T05:42:19.674Z,4.67
2022-10-11T05:43:21.569Z,5.45
2022-10-11T05:44:23.384Z,5.23
2022-10-11T05:45:25.111Z,4.70
2022-10-11T05:46:26.920Z,3.50
2022-10-11T05:47:28.738Z,5.30
2022-10-11T05:48:30.562Z,4.13
2022-10-11T05:49:32.441Z,4.07
2022-10-11T05:50:34.257Z,3.65
2022-10-11T05:51:36.068Z,3.33
2022-10-11T05:52:37.904Z,4.38
2022-10-11T05:53:39.815Z,6.07
2022-10-11T05:54:41.664Z,5.63
2022-10-11T05:55:43.488Z,4.25
2022-10-11T05:56:45.315Z,9.92
2022-10-11T05:57:47.126Z,6.93
2022-10-11T05:58:48.912Z,6.89
2022-10-11T05:59:50.768Z,6.80
2022-10-11T06:00:52.627Z,7.82
2022-10-11T06:01:54.655Z,8.85
2022-10-11T06:02:56.650Z,9.35
2022-10-11T06:03:58.432Z,7.25
2022-10-11T06:05:00.282Z,7.81
2022-10-11T06:06:02.200Z,7.31
2022-10-11T06:07:03.980Z,6.14
2022-10-11T06:08:05.676Z,5.01
2022-10-11T06:09:07.568Z,5.48
2022-10-11T06:10:09.726Z,7.34
2022-10-11T06:11:12.205Z,6.01
2022-10-11T06:12:14.008Z,6.22
2022-10-11T06:13:15.817Z,5.11
2022-10-11T06:14:17.603Z,5.02
2022-10-11T06:15:20.896Z,6.64
2022-10-11T06:16:22.735Z,4.32
2022-10-11T06:17:24.565Z,4.06
2022-10-11T06:18:26.388Z,4.68
2022-10-11T06:19:28.193Z,4.71
2022-10-11T06:20:30.032Z,4.59
2022-10-11T06:21:31.870Z,6.84
2022-10-11T06:22:33.696Z,5.33
2022-10-11T06:23:35.519Z,5.39
2022-10-11T06:24:37.333Z,3.92
2022-10-11T06:25:39.157Z,6.11
2022-10-11T06:26:41.066Z,4.93
2022-10-11T06:27:42.866Z,4.19
2022-10-11T06:28:44.765Z,5.19
2022-10-11T06:29:46.594Z,4.92
2022-10-11T06:30:48.449Z,7.73
2022-10-11T06:31:50.274Z,4.67
2022-10-11T06:32:52.126Z,5.09
2022-10-11T06:33:53.801Z,4.19
2022-10-11T06:34:55.528Z,6.80
2022-10-11T06:35:57.348Z,4.55
2022-10-11T06:36:59.081Z,6.06
2022-10-11T06:38:00.909Z,6.40
2022-10-11T06:39:02.714Z,4.18
2022-10-11T06:40:04.827Z,4.29
2022-10-11T06:41:06.684Z,4.53
2022-10-11T06:42:08.468Z,5.81
2022-10-11T06:43:10.195Z,4.50
2022-10-11T06:44:14.144Z,5.17
2022-10-11T06:45:15.593Z,3.95
2022-10-11T06:46:17.422Z,4.43
2022-10-11T06:47:19.224Z,5.11
2022-10-11T06:48:21.019Z,5.24
2022-10-11T06:49:23.620Z,6.36
2022-10-11T06:50:47.227Z,4.08
2022-10-11T06:51:29.263Z,5.75
2022-10-11T06:52:30.985Z,4.46
2022-10-11T06:53:32.786Z,4.45
2022-10-11T06:54:34.585Z,4.74
2022-10-11T06:55:36.467Z,5.08
2022-10-11T06:56:38.292Z,5.35
2022-10-11T06:57:39.977Z,6.57
2022-10-11T06:58:41.783Z,4.56
2022-10-11T06:59:43.603Z,5.75
2022-10-11T07:00:45.418Z,4.42
2022-10-11T07:01:47.195Z,6.15
2022-10-11T07:02:49.015Z,5.33
2022-10-11T07:03:51.643Z,6.25
2022-10-11T07:04:53.475Z,4.32
2022-10-11T07:05:57.922Z,5.64
2022-10-11T07:06:58.954Z,4.78
2022-10-11T07:08:00.764Z,4.42
2022-10-11T07:09:02.544Z,4.28
2022-10-11T07:10:04.239Z,6.11
2022-10-11T07:11:06.057Z,4.85
2022-10-11T07:12:07.931Z,5.19
2022-10-11T07:13:13.534Z,5.84
2022-10-11T07:14:13.339Z,4.54
2022-10-11T07:15:15.159Z,4.97
2022-10-11T07:16:16.978Z,5.28
2022-10-11T07:17:18.810Z,4.88
2022-10-11T07:18:20.599Z,5.22
2022-10-11T07:19:22.416Z,5.65
2022-10-11T07:20:24.226Z,4.49
2022-10-11T07:21:25.999Z,5.53
2022-10-11T07:22:27.829Z,4.48
2022-10-11T07:23:29.613Z,4.80
2022-10-11T07:24:31.605Z,6.02
2022-10-11T07:25:33.401Z,5.84
2022-10-11T07:26:38.755Z,5.22
2022-10-11T07:27:38.781Z,4.40
2022-10-11T07:28:40.675Z,6.32
2022-10-11T07:29:42.475Z,7.66
2022-10-11T07:30:44.212Z,6.21
2022-10-11T07:31:46.038Z,5.37
2022-10-11T07:32:47.904Z,4.57
2022-10-11T07:33:49.683Z,4.39
2022-10-11T07:34:51.509Z,5.70
2022-10-11T07:35:53.348Z,6.48
2022-10-11T07:36:55.168Z,5.40
2022-10-11T07:37:56.989Z,5.47
2022-10-11T07:38:58.794Z,6.85
2022-10-11T07:40:00.614Z,5.44
2022-10-11T07:41:02.393Z,5.43
2022-10-11T07:42:04.263Z,4.88
2022-10-11T07:43:06.089Z,6.33
2022-10-11T07:44:07.903Z,4.66
2022-10-11T07:45:09.714Z,5.27
2022-10-11T07:46:11.826Z,5.59
2022-10-11T07:47:13.638Z,7.86
2022-10-11T07:48:15.480Z,4.19
2022-10-11T07:49:17.279Z,3.87
2022-10-11T07:50:19.105Z,4.61
2022-10-11T07:51:20.939Z,15.03
2022-10-11T07:52:22.920Z,4.97
2022-10-11T07:53:24.751Z,3.43
2022-10-11T07:54:26.449Z,4.35
2022-10-11T07:55:28.276Z,4.08
2022-10-11T07:56:30.107Z,6.72
2022-10-11T07:57:32.216Z,6.41
2022-10-11T07:58:33.942Z,4.72
2022-10-11T07:59:35.747Z,4.09
2022-10-11T08:00:37.432Z,5.17
2022-10-11T08:01:39.349Z,4.90
2022-10-11T08:02:41.132Z,4.34
2022-10-11T08:03:42.885Z,5.37
2022-10-11T08:04:44.711Z,3.56
2022-10-11T08:05:46.518Z,5.32
2022-10-11T08:06:52.458Z,4.99
2022-10-11T08:07:51.962Z,4.12
2022-10-11T08:08:53.820Z,5.20
2022-10-11T08:09:55.629Z,4.68
2022-10-11T08:10:57.460Z,4.93
2022-10-11T08:11:59.254Z,5.05
2022-10-11T08:13:04.463Z,4.81
2022-10-11T08:14:04.931Z,5.18
2022-10-11T08:15:06.888Z,4.72
2022-10-11T08:16:09.061Z,4.73
2022-10-11T08:17:10.941Z,4.47
2022-10-11T08:18:12.766Z,4.13
2022-10-11T08:19:14.600Z,3.38
2022-10-11T08:20:16.405Z,5.62
2022-10-11T08:21:18.223Z,5.23
2022-10-11T08:22:20.017Z,3.40
2022-10-11T08:23:21.838Z,3.59
2022-10-11T08:24:23.795Z,4.53
2022-10-11T08:25:25.596Z,6.83
2022-10-11T08:26:27.426Z,6.63
2022-10-11T08:27:29.329Z,8.14
2022-10-11T08:28:31.192Z,6.69
2022-10-11T08:29:33.014Z,10.28
2022-10-11T08:30:34.873Z,8.71
2022-10-11T08:31:36.694Z,6.17
2022-10-11T08:32:38.642Z,5.17
2022-10-11T08:33:40.455Z,4.21
2022-10-11T08:34:42.301Z,6.93
2022-10-11T08:35:44.125Z,4.67
2022-10-11T08:36:45.946Z,5.17
2022-10-11T08:37:47.745Z,3.73
2022-10-11T08:38:49.568Z,4.95
2022-10-11T08:39:51.427Z,4.69
2022-10-11T08:40:53.258Z,4.57
2022-10-11T08:41:55.061Z,4.45
2022-10-11T08:42:56.882Z,3.70
2022-10-11T08:43:59.004Z,4.81
2022-10-11T08:45:16.197Z,3.75
2022-10-11T08:46:05.035Z,4.27
2022-10-11T08:47:07.116Z,6.29
2022-10-11T08:48:08.941Z,4.09
2022-10-11T08:49:10.765Z,5.59
2022-10-11T08:50:13.037Z,6.16
2022-10-11T08:51:14.871Z,2.99
2022-10-11T08:52:16.697Z,4.71
2022-10-11T08:53:18.531Z,4.74
2022-10-11T08:54:20.371Z,4.95
2022-10-11T08:55:22.235Z,4.69
2022-10-11T08:56:24.064Z,4.93
2022-10-11T08:57:25.890Z,4.54
2022-10-11T08:58:27.691Z,5.75
2022-10-11T08:59:29.522Z,3.43
2022-10-11T09:00:31.383Z,5.37
2022-10-11T09:01:33.247Z,4.34
2022-10-11T09:02:55.741Z,5.49
2022-10-11T09:03:38.759Z,6.58
2022-10-11T09:04:40.577Z,6.26
2022-10-11T09:05:42.431Z,3.92
2022-10-11T09:06:44.258Z,4.30
2022-10-11T09:07:46.112Z,4.16
2022-10-11T09:08:47.921Z,3.91
2022-10-11T09:09:49.730Z,4.26
2022-10-11T09:10:51.642Z,3.53
2022-10-11T09:11:53.476Z,2.65
2022-10-11T09:12:55.272Z,3.62
2022-10-11T09:13:57.088Z,3.50
2022-10-11T09:14:59.003Z,3.52
2022-10-11T09:16:00.919Z,4.33
2022-10-11T09:17:02.734Z,3.42
2022-10-11T09:18:04.554Z,3.95
2022-10-11T09:19:06.379Z,5.22
2022-10-11T09:20:08.614Z,3.96
2022-10-11T09:21:10.462Z,3.85
2022-10-11T09:22:12.290Z,2.98
2022-10-11T09:23:14.130Z,5.33
2022-10-11T09:24:15.936Z,3.32
2022-10-11T09:25:17.739Z,3.86
2022-10-11T09:26:19.701Z,5.35
2022-10-11T09:27:33.048Z,4.18
2022-10-11T09:28:25.241Z,4.86
2022-10-11T09:29:27.098Z,4.60
2022-10-11T09:30:28.950Z,2.49
2022-10-11T09:31:30.814Z,4.31
2022-10-11T09:32:32.642Z,3.50
2022-10-11T09:33:34.467Z,3.10
2022-10-11T09:34:36.273Z,4.53
2022-10-11T09:35:38.108Z,3.64
2022-10-11T09:36:39.983Z,3.19
2022-10-11T09:37:41.787Z,3.81
2022-10-11T09:38:43.607Z,5.64
2022-10-11T09:39:45.413Z,3.37
2022-10-11T09:40:47.238Z,4.55
2022-10-11T09:41:52.118Z,4.17
2022-10-11T09:42:53.972Z,5.06
2022-10-11T09:43:55.779Z,3.87
2022-10-11T09:44:57.652Z,2.83
2022-10-11T09:45:59.805Z,4.75
2022-10-11T09:47:01.670Z,3.74
2022-10-11T09:48:03.624Z,4.05
2022-10-11T09:49:05.406Z,6.06
2022-10-11T09:50:07.519Z,6.37
2022-10-11T09:51:09.350Z,3.80
2022-10-11T09:52:11.240Z,3.42
2022-10-11T09:53:13.057Z,4.75
2022-10-11T09:54:14.842Z,4.21
2022-10-11T09:55:19.706Z,3.27
2022-10-11T09:56:20.161Z,3.06
2022-10-11T09:57:22.019Z,4.11
2022-10-11T09:58:23.802Z,4.09
2022-10-11T09:59:25.618Z,4.75
2022-10-11T10:00:27.465Z,4.15
2022-10-11T10:01:29.357Z,4.80
2022-10-11T10:02:31.128Z,3.90
2022-10-11T10:03:32.931Z,4.21
2022-10-11T10:04:34.735Z,4.84
2022-10-11T10:05:36.548Z,3.53
2022-10-11T10:06:38.540Z,3.73
2022-10-11T10:07:40.376Z,4.57
2022-10-11T10:08:42.158Z,3.22
2022-10-11T10:09:43.961Z,4.19
2022-10-11T10:10:45.663Z,5.15
2022-10-11T10:11:47.471Z,4.91
2022-10-11T10:12:49.407Z,3.91
2022-10-11T10:13:51.195Z,3.43
2022-10-11T10:14:53.009Z,6.31
2022-10-11T10:15:54.799Z,5.37
2022-10-11T10:16:56.665Z,4.44
2022-10-11T10:17:58.503Z,5.95
2022-10-11T10:19:00.306Z,4.33
2022-10-11T10:20:02.008Z,3.75
2022-10-11T10:21:03.814Z,3.75
2022-10-11T10:22:05.606Z,4.60
2022-10-11T10:23:07.436Z,4.27
2022-10-11T10:24:09.216Z,4.99
2022-10-11T10:25:11.027Z,3.34
2022-10-11T10:26:13.024Z,3.59
2022-10-11T10:27:14.817Z,7.19
2022-10-11T10:28:16.750Z,6.13
2022-10-11T10:29:18.547Z,6.07
2022-10-11T10:30:20.472Z,3.41
2022-10-11T10:31:22.266Z,4.27
2022-10-11T10:32:24.092Z,3.47
2022-10-11T10:33:25.921Z,3.43
2022-10-11T10:34:27.718Z,4.69
2022-10-11T10:35:29.625Z,5.03
2022-10-11T10:36:31.382Z,5.06
2022-10-11T10:37:33.060Z,4.29
2022-10-11T10:38:34.791Z,4.46
2022-10-11T10:39:36.502Z,5.79
2022-10-11T10:40:38.214Z,5.87
2022-10-11T10:41:39.910Z,3.68
2022-10-11T10:42:41.686Z,6.24
2022-10-11T10:43:43.419Z,4.61
2022-10-11T10:44:45.210Z,4.28
2022-10-11T10:45:47.111Z,5.01
2022-10-11T10:46:48.911Z,4.72
2022-10-11T10:47:52.419Z,5.01
2022-10-11T10:49:57.910Z,6.03
2022-10-11T10:50:59.673Z,5.15
2022-10-11T10:52:01.466Z,6.74
2022-10-11T10:53:03.164Z,4.81
2022-10-11T10:54:05.041Z,7.25
2022-10-11T10:55:06.832Z,4.48
2022-10-11T10:56:09.226Z,5.01
2022-10-11T10:57:11.329Z,6.44
2022-10-11T10:58:17.903Z,5.33
2022-10-11T10:59:16.664Z,4.55
2022-10-11T11:00:18.444Z,4.31
2022-10-11T11:01:20.361Z,4.27
2022-10-11T11:02:39.514Z,4.09
2022-10-11T11:03:25.951Z,5.74
2022-10-11T11:04:27.764Z,4.51
2022-10-11T11:05:29.462Z,3.87
2022-10-11T11:06:34.191Z,5.20
2022-10-11T11:07:34.873Z,5.52
2022-10-11T11:08:36.683Z,6.74
2022-10-11T11:09:38.499Z,6.21
2022-10-11T11:10:40.194Z,4.59
2022-10-11T11:11:41.986Z,3.59
2022-10-11T11:12:43.706Z,3.75
2022-10-11T11:13:45.510Z,3.97
2022-10-11T11:14:47.337Z,5.13
2022-10-11T11:15:49.031Z,4.21
2022-10-11T11:16:50.842Z,4.48
2022-10-11T11:17:52.628Z,4.46
2022-10-11T11:18:54.334Z,4.93
2022-10-11T11:19:56.209Z,6.31
2022-10-11T11:20:58.010Z,5.62
2022-10-11T11:21:59.821Z,4.74
2022-10-11T11:23:01.594Z,4.52
2022-10-11T11:24:03.277Z,4.24
2022-10-11T11:25:04.995Z,3.41
2022-10-11T11:26:07.432Z,4.08
2022-10-11T11:27:09.487Z,4.42
2022-10-11T11:28:11.322Z,3.89
2022-10-11T11:29:13.067Z,4.47
2022-10-11T11:30:14.993Z,3.85
2022-10-11T11:31:16.792Z,3.75
2022-10-11T11:32:18.596Z,4.06
2022-10-11T11:33:20.380Z,3.23
2022-10-11T11:34:22.196Z,2.94
2022-10-11T11:35:24.021Z,4.91
2022-10-11T11:36:25.825Z,2.73
2022-10-11T11:37:27.617Z,5.31
2022-10-11T11:38:29.917Z,3.86
2022-10-11T11:39:31.810Z,2.50
2022-10-11T11:40:33.638Z,4.76
2022-10-11T11:41:35.423Z,5.07
2022-10-11T11:42:38.634Z,5.12
2022-10-11T11:43:43.677Z,4.47
2022-10-11T11:44:46.695Z,4.81
2022-10-11T11:45:49.839Z,4.74
2022-10-11T11:46:51.644Z,5.17
2022-10-11T11:47:54.639Z,3.64
2022-10-11T11:48:57.206Z,2.82
2022-10-11T11:50:00.235Z,3.81
2022-10-11T11:51:09.260Z,2.99
2022-10-11T11:52:15.784Z,4.08
2022-10-11T11:53:20.168Z,3.26
2022-10-11T11:54:22.441Z,7.53
2022-10-11T11:55:25.409Z,2.87
2022-10-11T11:56:27.365Z,4.54
2022-10-11T11:57:30.990Z,5.79
2022-10-11T11:58:35.129Z,3.74
2022-10-11T11:59:36.998Z,3.56
2022-10-11T12:00:39.347Z,4.15
2022-10-11T12:01:41.337Z,3.46
2022-10-11T12:02:53.599Z,4.23
2022-10-11T12:03:52.790Z,4.58
2022-10-11T12:04:54.547Z,3.40
2022-10-11T12:05:56.375Z,3.51
2022-10-11T12:07:15.334Z,4.77
2022-10-11T12:08:01.861Z,4.42
2022-10-11T12:09:03.678Z,4.05
2022-10-11T12:10:05.602Z,4.52
2022-10-11T12:11:07.677Z,3.97
2022-10-11T12:12:09.585Z,3.65
2022-10-11T12:13:11.384Z,7.01
2022-10-11T12:14:13.197Z,6.73
2022-10-11T12:15:15.020Z,5.35
2022-10-11T12:16:17.151Z,4.85
2022-10-11T12:17:18.997Z,4.85
2022-10-11T12:18:20.812Z,5.06
2022-10-11T12:19:22.635Z,6.13
2022-10-11T12:20:24.454Z,3.90
2022-10-11T12:21:26.283Z,5.20
2022-10-11T12:22:28.131Z,4.56
2022-10-11T12:23:29.946Z,4.47
2022-10-11T12:24:31.862Z,4.03
2022-10-11T12:25:33.685Z,5.35
2022-10-11T12:26:35.503Z,7.43
2022-10-11T12:27:37.356Z,9.55
2022-10-11T12:28:39.291Z,9.50
2022-10-11T12:29:41.073Z,7.64
2022-10-11T12:30:42.889Z,7.37
2022-10-11T12:31:46.258Z,4.49
2022-10-11T12:32:48.281Z,4.62
2022-10-11T12:33:50.098Z,6.45
2022-10-11T12:34:51.921Z,4.05
2022-10-11T12:35:53.741Z,3.76
2022-10-11T12:36:55.567Z,3.75
2022-10-11T12:37:57.412Z,2.84
2022-10-11T12:38:59.244Z,4.94
2022-10-11T12:40:01.070Z,4.00
2022-10-11T12:41:02.896Z,5.28
2022-10-11T12:42:06.006Z,5.85
2022-10-11T12:43:07.963Z,5.11
2022-10-11T12:44:09.773Z,7.62
2022-10-11T12:45:11.593Z,9.07
2022-10-11T12:46:13.422Z,11.36
2022-10-11T12:47:15.259Z,6.76
2022-10-11T12:48:17.101Z,6.01
2022-10-11T12:49:18.919Z,5.45
2022-10-11T12:50:20.723Z,4.77
2022-10-11T12:51:22.555Z,4.33
2022-10-11T12:52:24.384Z,4.27
2022-10-11T12:53:26.226Z,5.01
2022-10-11T12:54:30.983Z,5.09
2022-10-11T12:55:31.678Z,5.82
2022-10-11T12:56:33.495Z,5.61
2022-10-11T12:57:35.315Z,2.43
2022-10-11T12:58:37.175Z,3.59
2022-10-11T12:59:38.992Z,3.74
2022-10-11T13:00:40.933Z,5.97
2022-10-11T13:01:42.795Z,6.53
2022-10-11T13:02:44.636Z,7.47
2022-10-11T13:03:46.480Z,5.58
2022-10-11T13:04:48.189Z,4.62
2022-10-11T13:06:04.754Z,6.43
2022-10-11T13:06:53.635Z,3.95
2022-10-11T13:07:55.531Z,4.63
2022-10-11T13:08:57.384Z,9.05
2022-10-11T13:09:59.195Z,5.26
2022-10-11T13:11:01.003Z,6.43
2022-10-11T13:12:02.815Z,6.63
2022-10-11T13:13:04.644Z,3.78
2022-10-11T13:14:06.503Z,5.05
2022-10-11T13:15:08.314Z,4.64
2022-10-11T13:16:10.838Z,6.39
2022-10-11T13:17:12.712Z,6.84
2022-10-11T13:18:14.540Z,6.46
2022-10-11T13:19:16.387Z,5.47
2022-10-11T13:20:18.262Z,4.91
2022-10-11T13:21:23.134Z,4.65
2022-10-11T13:22:23.689Z,4.69
2022-10-11T13:23:25.557Z,4.61
2022-10-11T13:24:27.429Z,4.03
2022-10-11T13:25:29.246Z,4.83
2022-10-11T13:26:31.091Z,6.24
2022-10-11T13:27:32.982Z,4.93
2022-10-11T13:28:36.642Z,7.35
2022-10-11T13:29:38.649Z,6.76
2022-10-11T13:30:40.585Z,4.79
2022-10-11T13:31:42.391Z,8.29
2022-10-11T13:32:44.253Z,5.04
2022-10-11T13:33:46.234Z,7.19
2022-10-11T13:34:48.108Z,6.67
2022-10-11T13:35:49.911Z,6.04
2022-10-11T13:36:51.727Z,7.75
2022-10-11T13:37:53.549Z,9.26
2022-10-11T13:38:55.532Z,7.96
2022-10-11T13:39:57.406Z,7.21
2022-10-11T13:40:59.218Z,5.88
2022-10-11T13:42:01.042Z,5.40
2022-10-11T13:43:02.852Z,3.94
2022-10-11T13:44:04.676Z,4.28
2022-10-11T13:45:06.627Z,3.80
2022-10-11T13:46:09.552Z,3.43